Time;durP1;ratioP1;P1;durP2;ratioP2;P2;SDS_P1;SDS_P2;PMS_P1;PMS_P2;Temp;Humidity;BMP_temperature;BMP_pressure;BME280_temperature;BME280_humidity;BME280_pressure;Samples;Min_cycle;Max_cycle;Signal;HPM_P1;HPM_P2
2023/02/02 01:04:04;;;;;;;9.15;1.80;;;;;;;;;;6279960;22;20098;-81
2023/02/02 01:06:31;;;;;;;10.40;1.98;;;;;;;;;;6088390;23;20097;-81
2023/02/02 01:08:58;;;;;;;8.85;1.80;;;;;;;;;;6010002;23;20085;-81
2023/02/02 01:24:42;;;;;;;12.93;2.25;;;;;;;;;;6260563;22;20400;-81
2023/02/02 01:27:24;;;;;;;6.10;1.67;;;;;;;;;;6060656;23;20027;-82
2023/02/02 01:53:27;;;;;;;8.43;1.52;;;;;;;;;;6134854;22;19927;-82
2023/02/02 01:55:55;;;;;;;9.85;1.52;;;;;;;;;;6015125;23;20029;-82
2023/02/02 02:49:08;;;;;;;2.72;0.90;;;;;;;;;;6342593;22;20057;-81
2023/02/02 02:51:48;;;;;;;6.50;1.20;;;;;;;;;;6207687;22;20022;-76
2023/02/02 02:54:18;;;;;;;5.50;1.25;;;;;;;;;;6182162;23;20036;-74
2023/02/02 02:56:52;;;;;;;4.47;1.23;;;;;;;;;;6083457;23;20021;-78
2023/02/02 02:59:27;;;;;;;7.28;1.33;;;;;;;;;;6104213;23;20085;-75
2023/02/02 03:02:01;;;;;;;4.63;1.23;;;;;;;;;;6162034;23;20164;-74
2023/02/02 03:04:35;;;;;;;5.65;1.33;;;;;;;;;;6066693;23;20052;-77
2023/02/02 03:09:53;;;;;;;7.07;1.17;;;;;;;;;;4985846;27;20152;-76
2023/02/02 03:12:20;;;;;;;4.57;1.08;;;;;;;;;;4894705;29;20060;-75
2023/02/02 03:17:32;;;;;;;4.35;1.52;;;;;;;;;;4989826;28;20467;-71
2023/02/02 03:19:59;;;;;;;1.27;0.80;;;;;;;;;;4970746;28;20049;-73
2023/02/02 03:22:26;;;;;;;5.28;0.93;;;;;;;;;;4949697;28;20055;-72
2023/02/02 03:24:53;;;;;;;4.60;1.17;;;;;;;;;;4809791;28;20143;-78
2023/02/02 03:27:22;;;;;;;4.28;1.13;;;;;;;;;;4837146;29;20057;-76
2023/02/02 03:37:09;;;;;;;5.45;1.13;;;;;;;;;;4814822;28;20048;-76
2023/02/02 03:39:35;;;;;;;4.70;1.17;;;;;;;;;;4875143;28;20078;-76
2023/02/02 03:42:05;;;;;;;7.40;0.95;;;;;;;;;;4906973;28;20055;-74
2023/02/02 03:44:32;;;;;;;2.67;1.00;;;;;;;;;;4885299;28;20110;-74
2023/02/02 03:46:59;;;;;;;8.65;1.55;;;;;;;;;;4933428;28;20065;-72
2023/02/02 03:49:25;;;;;;;2.42;1.08;;;;;;;;;;4946783;28;20055;-73
2023/02/02 03:52:03;;;;;;;6.55;1.52;;;;;;;;;;4884417;29;20079;-73
2023/02/02 03:54:32;;;;;;;5.30;1.07;;;;;;;;;;4866949;29;20100;-73
2023/02/02 03:57:01;;;;;;;11.23;1.67;;;;;;;;;;4919486;28;20302;-72
2023/02/02 03:59:28;;;;;;;7.28;1.50;;;;;;;;;;4934165;28;20107;-74
2023/02/02 04:01:55;;;;;;;11.70;1.80;;;;;;;;;;4928920;28;20134;-74
2023/02/02 04:04:23;;;;;;;8.63;1.33;;;;;;;;;;4925636;28;20062;-72
2023/02/02 04:16:53;;;;;;;12.98;1.58;;;;;;;;;;5025245;27;20471;-74
2023/02/02 04:19:21;;;;;;;;;;;;;;;;;;4886812;28;20431;-76
2023/02/02 04:26:58;;;;;;;7.22;1.50;;;;;;;;;;5004846;27;20430;-74
2023/02/02 04:29:27;;;;;;;10.98;1.90;;;;;;;;;;4931331;28;20047;-77
2023/02/02 04:37:05;;;;;;;9.35;2.17;;;;;;;;;;5029212;27;20455;-75
2023/02/02 04:39:32;;;;;;;7.93;1.67;;;;;;;;;;4968482;28;20070;-76
2023/02/02 04:41:59;;;;;;;11.27;1.48;;;;;;;;;;4959337;28;20235;-75
2023/02/02 04:44:31;;;;;;;7.78;1.75;;;;;;;;;;4904895;28;20051;-73
2023/02/02 04:46:59;;;;;;;10.02;1.98;;;;;;;;;;4968246;28;20145;-73
2023/02/02 04:49:29;;;;;;;11.63;1.40;;;;;;;;;;4946268;28;20053;-74
2023/02/02 04:51:58;;;;;;;14.82;1.60;;;;;;;;;;4956744;28;20309;-73
2023/02/02 04:57:14;;;;;;;11.68;1.45;;;;;;;;;;5019221;27;20433;-71
2023/02/02 04:59:52;;;;;;;8.65;1.50;;;;;;;;;;4985524;28;20046;-73
2023/02/02 05:02:19;;;;;;;10.88;2.13;;;;;;;;;;4983534;28;20133;-72
2023/02/02 05:04:46;;;;;;;13.00;1.73;;;;;;;;;;4941371;28;20058;-75
2023/02/02 05:07:13;;;;;;;11.20;1.75;;;;;;;;;;4969120;28;20049;-73
2023/02/02 05:09:47;;;;;;;11.43;1.75;;;;;;;;;;4954581;28;20110;-73
2023/02/02 05:12:18;;;;;;;4.78;1.33;;;;;;;;;;4919890;28;20058;-73
2023/02/02 08:13:31;;;;;;;12.57;2.22;;;;;;;;;;6223065;22;1489823;-72
2023/02/02 08:21:24;;;;;;;8.07;2.17;;;;;;;;;;4937039;27;3313101;-75
2023/02/02 08:23:53;;;;;;;17.80;2.10;;;;;;;;;;4930803;28;20105;-71
2023/02/02 09:41:59;;;;;;;11.40;2.63;;;;;;;;;;4965412;27;20131;-72
2023/02/02 09:44:47;;;;;;;12.73;2.40;;;;;;;;;;4889944;28;20091;-73
2023/02/02 10:03:08;;;;;;;12.30;2.10;;;;;;;;;;6296804;22;1530607;-71
2023/02/02 10:05:46;;;;;;;11.05;2.97;;;;;;;;;;6069220;23;20026;-71
2023/02/02 10:08:20;;;;;;;10.35;1.90;;;;;;;;;;5935007;23;20027;-72
2023/02/02 10:10:48;;;;;;;7.90;2.53;;;;;;;;;;5963466;23;20046;-72
2023/02/02 10:13:17;;;;;;;9.32;1.73;;;;;;;;;;5940638;23;20023;-72
2023/02/02 10:15:48;;;;;;;10.68;2.13;;;;;;;;;;5962075;23;20051;-72
2023/02/02 10:39:18;;;;;;;9.05;2.42;;;;;;;;;;6180224;22;3184512;-70
2023/02/02 10:41:50;;;;;;;9.63;2.00;;;;;;;;;;6208171;22;20023;-70
2023/02/02 10:44:21;;;;;;;11.65;2.08;;;;;;;;;;6131926;23;20047;-70
2023/02/02 10:49:33;;;;;;;9.18;1.73;;;;;;;;;;6082136;23;20020;-70
2023/02/02 10:52:08;;;;;;;12.38;2.53;;;;;;;;;;6128100;23;20175;-70
2023/02/02 10:54:46;;;;;;;15.93;1.73;;;;;;;;;;6156185;23;20101;-73
2023/02/02 11:00:05;;;;;;;14.65;1.95;;;;;;;;;;5038490;27;20517;-74
2023/02/02 11:02:40;;;;;;;7.80;1.80;;;;;;;;;;4900153;29;20070;-76
2023/02/02 11:10:43;;;;;;;8.27;1.80;;;;;;;;;;5011899;27;20486;-72
2023/02/02 11:13:15;;;;;;;7.78;1.90;;;;;;;;;;4881444;29;20098;-73
2023/02/02 11:48:14;;;;;;;8.60;1.80;;;;;;;;;;6107268;22;1494556;-71
2023/02/02 11:50:47;;;;;;;7.45;1.38;;;;;;;;;;6133414;23;20021;-70
2023/02/02 11:53:34;;;;;;;10.70;1.70;;;;;;;;;;6095940;23;20025;-70
2023/02/02 11:56:11;;;;;;;14.45;1.85;;;;;;;;;;6070807;23;20026;-72
2023/02/02 11:58:46;;;;;;;6.63;1.92;;;;;;;;;;5998573;23;20089;-70
2023/02/02 12:06:21;;;;;;;12.93;2.00;;;;;;;;;;5968199;23;20120;-71
2023/02/02 12:14:04;;;;;;;10.43;2.38;;;;;;;;;;5025932;27;20451;-73
2023/02/02 12:16:39;;;;;;;5.90;1.52;;;;;;;;;;4934084;28;20050;-71
2023/02/02 12:27:18;;;;;;;7.28;1.85;;;;;;;;;;4935614;28;20528;-71
2023/02/02 12:29:57;;;;;;;11.68;1.90;;;;;;;;;;4928991;28;20045;-71
2023/02/02 12:32:28;;;;;;;12.07;1.45;;;;;;;;;;4995190;28;20135;-71
2023/02/02 12:35:08;;;;;;;9.85;1.73;;;;;;;;;;5023305;28;20063;-71
2023/02/02 12:37:46;;;;;;;7.47;1.38;;;;;;;;;;5028578;28;20048;-71
2023/02/02 12:40:24;;;;;;;9.35;1.35;;;;;;;;;;4993765;28;20434;-71
2023/02/02 12:43:11;;;;;;;9.65;1.75;;;;;;;;;;5020136;28;20057;-71
2023/02/02 12:45:53;;;;;;;5.72;1.30;;;;;;;;;;5023954;28;20049;-71
2023/02/02 12:48:32;;;;;;;12.00;1.40;;;;;;;;;;4990525;28;20049;-71
2023/02/02 12:51:05;;;;;;;5.40;1.40;;;;;;;;;;4989097;28;20059;-71
2023/02/02 12:53:39;;;;;;;11.25;1.80;;;;;;;;;;4995257;28;20406;-71
2023/02/02 12:56:13;;;;;;;9.90;1.83;;;;;;;;;;5006751;28;20640;-70
2023/02/02 12:58:43;;;;;;;9.32;1.48;;;;;;;;;;4955149;28;20062;-72
2023/02/02 13:01:15;;;;;;;9.75;1.55;;;;;;;;;;4938519;28;20050;-72
2023/02/02 13:03:51;;;;;;;8.68;1.58;;;;;;;;;;4930978;28;20191;-71
2023/02/02 13:06:27;;;;;;;8.50;1.70;;;;;;;;;;4931263;28;20082;-71
2023/02/02 13:08:59;;;;;;;6.72;1.30;;;;;;;;;;4890783;28;20050;-71
2023/02/02 13:11:33;;;;;;;7.47;1.50;;;;;;;;;;4917671;28;20179;-71
2023/02/02 13:14:05;;;;;;;8.55;1.80;;;;;;;;;;5007704;28;20056;-70
2023/02/02 13:16:36;;;;;;;12.50;1.60;;;;;;;;;;5026881;28;20053;-70
2023/02/02 13:19:07;;;;;;;5.43;1.42;;;;;;;;;;4958505;28;20080;-71
2023/02/02 13:21:37;;;;;;;10.20;1.67;;;;;;;;;;5005397;28;20046;-72
2023/02/02 13:24:11;;;;;;;3.35;1.23;;;;;;;;;;4934369;28;20050;-71
2023/02/02 13:26:42;;;;;;;7.30;1.50;;;;;;;;;;4898619;28;20055;-72
2023/02/02 13:42:27;;;;;;;6.60;1.88;;;;;;;;;;6185328;22;1415248;-70
2023/02/02 13:45:17;;;;;;;11.38;1.50;;;;;;;;;;6104896;23;20024;-72
2023/02/02 13:47:54;;;;;;;8.02;2.00;;;;;;;;;;6082926;23;20026;-72
2023/02/02 13:50:28;;;;;;;4.78;1.30;;;;;;;;;;5859634;23;20091;-71
2023/02/02 13:53:08;;;;;;;8.38;1.85;;;;;;;;;;5988603;23;20076;-72
2023/02/02 13:55:53;;;;;;;5.65;1.67;;;;;;;;;;5986150;23;20027;-72
2023/02/02 13:58:34;;;;;;;4.43;1.30;;;;;;;;;;5979742;23;20023;-71
2023/02/02 14:06:48;;;;;;;6.40;1.42;;;;;;;;;;5082889;27;20412;-73
2023/02/02 14:16:54;;;;;;;10.45;1.40;;;;;;;;;;5012173;27;20499;-71
2023/02/02 14:19:40;;;;;;;8.10;1.95;;;;;;;;;;4929468;28;20133;-73
2023/02/02 14:22:20;;;;;;;7.10;1.83;;;;;;;;;;5022929;28;20053;-73
2023/02/02 14:24:52;;;;;;;8.30;1.77;;;;;;;;;;4965677;28;20081;-73
2023/02/02 14:32:44;;;;;;;7.07;1.80;;;;;;;;;;5039641;27;20431;-74
2023/02/02 14:35:38;;;;;;;6.47;1.63;;;;;;;;;;4939863;28;20058;-73
2023/02/02 14:38:12;;;;;;;9.85;2.05;;;;;;;;;;4933340;28;20668;-74
2023/02/02 14:54:03;;;;;;;5.88;1.77;;;;;;;;;;6122339;22;1647943;-74
2023/02/02 14:56:48;;;;;;;9.85;2.50;;;;;;;;;;5956255;23;20072;-75
2023/02/02 15:17:50;;;;;;;9.65;2.00;;;;;;;;;;6219014;22;1580701;-73
2023/02/02 15:25:41;;;;;;;5.68;1.92;;;;;;;;;;5025388;27;20591;-75
2023/02/02 15:28:28;;;;;;;4.55;1.80;;;;;;;;;;4951329;28;20089;-76
2023/02/02 16:24:53;;;;;;;3.40;1.70;;;;;;;;;;6196462;22;1698243;-75
2023/02/02 16:27:37;;;;;;;2.67;1.60;;;;;;;;;;6019928;23;20353;-75
2023/02/02 16:33:26;;;;;;;4.07;1.92;;;;;;;;;;5055405;27;20440;-74
2023/02/02 16:35:57;;;;;;;4.80;1.65;;;;;;;;;;4981355;28;20054;-74
2023/02/02 17:16:48;;;;;;;7.00;3.40;;;;;;;;;;6231781;22;1581005;-73
2023/02/02 17:19:32;;;;;;;4.60;2.53;;;;;;;;;;6171472;23;20256;-71
2023/02/02 17:24:57;;;;;;;;;;;;;;;;;;;;;
2023/02/02 17:27:37;;;;;;;5.00;2.55;;;;;;;;;;4906116;28;20062;-71
2023/02/02 17:35:20;;;;;;;9.20;2.90;;;;;;;;;;4977510;27;20439;-72
2023/02/02 17:37:53;;;;;;;11.10;3.10;;;;;;;;;;4897940;28;20063;-72
2023/02/02 17:40:27;;;;;;;5.90;2.60;;;;;;;;;;4891382;28;20055;-72
2023/02/02 17:48:19;;;;;;;7.03;2.53;;;;;;;;;;5010575;27;20465;-73
2023/02/02 17:53:59;;;;;;;10.80;3.00;;;;;;;;;;5019075;27;20498;-72
2023/02/02 17:56:28;;;;;;;6.93;3.00;;;;;;;;;;4937632;28;20073;-73
2023/02/02 17:58:55;;;;;;;9.02;2.80;;;;;;;;;;4948488;28;20066;-73
2023/02/02 18:04:02;;;;;;;7.47;2.80;;;;;;;;;;4942515;27;3904717;-71
2023/02/02 18:06:29;;;;;;;12.23;3.10;;;;;;;;;;5037666;28;20051;-71
2023/02/02 18:09:00;;;;;;;12.82;3.20;;;;;;;;;;4992928;28;20053;-71
2023/02/02 18:11:27;;;;;;;7.28;2.42;;;;;;;;;;4923746;28;20044;-71
2023/02/02 18:13:54;;;;;;;8.18;3.15;;;;;;;;;;4956257;28;20054;-71
2023/02/02 18:16:22;;;;;;;7.78;2.65;;;;;;;;;;4930214;28;20046;-71
2023/02/02 18:18:52;;;;;;;7.67;2.60;;;;;;;;;;4939118;28;20180;-71
2023/02/02 18:31:13;;;;;;;12.50;2.90;;;;;;;;;;4877056;28;20042;-71
2023/02/02 18:33:45;;;;;;;7.35;2.80;;;;;;;;;;4812287;29;20087;-71
2023/02/02 18:36:12;;;;;;;9.02;3.25;;;;;;;;;;4883678;28;20047;-71
2023/02/02 18:38:43;;;;;;;9.15;3.10;;;;;;;;;;4903485;28;20078;-73
2023/02/02 18:41:20;;;;;;;10.25;3.25;;;;;;;;;;4913316;28;20048;-72
2023/02/02 18:43:55;;;;;;;6.35;2.50;;;;;;;;;;4870372;28;20123;-74
2023/02/02 18:56:39;;;;;;;13.20;2.83;;;;;;;;;;5007817;28;20546;-74
2023/02/02 18:59:31;;;;;;;13.23;3.50;;;;;;;;;;4917005;28;20071;-74
2023/02/02 19:17:38;;;;;;;6.85;2.40;;;;;;;;;;5042112;27;20420;-74
2023/02/02 19:20:24;;;;;;;10.55;2.70;;;;;;;;;;4946306;28;20054;-73
2023/02/02 19:36:05;;;;;;;4.55;1.95;;;;;;;;;;6103626;22;1485500;-72
2023/02/02 19:38:36;;;;;;;8.68;2.30;;;;;;;;;;6087358;23;20026;-73
2023/02/02 19:41:03;;;;;;;;;;;;;;;;;;6034560;23;20034;-73
2023/02/02 19:46:17;;;;;;;9.43;2.30;;;;;;;;;;5038659;27;20442;-73
2023/02/02 19:49:24;;;;;;;8.80;2.00;;;;;;;;;;4964931;28;20285;-73
